Seabourn Quest — C6YZ5 — position and weather

sailwx.info

Track history (hours):
 
Tides and Currents Weather Stations Pressure Air Temp Water Temp Dewpoint Dewpoint Depression Visibility Wind Speed Wind Dir Waves Ship Positions

Seabourn Quest

Last reported at 2018-Sep-17 11:21 UTC. Time now 2018-Sep-19 02:54 UTC.
Position N 46°49' W 071°12'.

Length 197 m; draft 6.7 m.

Type: Ship. MMSI: 311038900.

Date/timePositionNaut miles runAvg speedWind from/ knotsBaromVisibWave heightAir tempDewpointWater temp
2018-Sep-17 11:21N 46°49' W 071°12'1 2.6
2018-Sep-17 10:56N 46°50' W 071°11'  
2018-Sep-10 07:05N 43°49' W 068°30'115.6
2018-Sep-10 07:01N 43°48' W 068°31'113.6
2018-Sep-10 06:57N 43°48' W 068°32'814.8
2018-Sep-10 06:23N 43°41' W 068°40'514.7
2018-Sep-10 06:03N 43°38' W 068°45'115.1
2018-Sep-10 06:00N 43°38' W 068°46'8615.3
2018-Sep-10 00:21N 42°42' W 070°16'515.6
2018-Sep-10 00:03N 42°39' W 070°21'115.3
2018-Sep-10 00:00N 42°39' W 070°22'815.5
2018-Sep-09 23:30N 42°35' W 070°30'715.8
2018-Sep-09 23:03N 42°30' W 070°38'115.8
2018-Sep-09 23:01N 42°30' W 070°39'815.6
2018-Sep-09 22:30N 42°26' W 070°48'612.5
2018-Sep-09 22:03N 42°23' W 070°54'114.5
2018-Sep-09 22:01N 42°22' W 070°55'5 8.5
2018-Sep-09 21:26N 42°21' W 071°01'0 0.0
2018-Sep-09 10:33N 42°21' W 071°01'0 0.0
2018-Sep-09 10:24N 42°21' W 071°01'6 9.5
2018-Sep-09 09:46N 42°23' W 070°54'3 9.2
2018-Sep-09 09:29N 42°24' W 070°50'614.5
2018-Sep-09 09:03N 42°28' W 070°43'115.1
2018-Sep-09 09:00N 42°28' W 070°43'714.8
2018-Sep-09 08:30N 42°32' W 070°34'714.5
2018-Sep-09 08:03N 42°36' W 070°27'114.3
2018-Sep-09 08:00N 42°37' W 070°26'714.3
2018-Sep-09 07:30N 42°41' W 070°18'614.2
2018-Sep-09 07:03N 42°44' W 070°11'114.4
2018-Sep-09 07:00N 42°45' W 070°10'  
Track history (hours):
 
Tides and Currents Weather Stations Pressure Air Temp Water Temp Dewpoint Dewpoint Depression Visibility Wind Speed Wind Dir Waves Ship Positions

Seabourn Quest

Last reported at 2018-Sep-17 11:21 UTC. Time now 2018-Sep-19 02:54 UTC.
Position N 46°49' W 071°12'.

Length 197 m; draft 6.7 m.

Type: Ship. MMSI: 311038900.

Date/timePositionNaut miles runAvg speedWind from/ knotsBaromVisibWave heightAir tempDewpointWater temp
2018-Sep-17 11:21N 46°49' W 071°12'1 2.6
2018-Sep-17 10:56N 46°50' W 071°11'  
2018-Sep-10 07:05N 43°49' W 068°30'115.6
2018-Sep-10 07:01N 43°48' W 068°31'113.6
2018-Sep-10 06:57N 43°48' W 068°32'814.8
2018-Sep-10 06:23N 43°41' W 068°40'514.7
2018-Sep-10 06:03N 43°38' W 068°45'115.1
2018-Sep-10 06:00N 43°38' W 068°46'8615.3
2018-Sep-10 00:21N 42°42' W 070°16'515.6
2018-Sep-10 00:03N 42°39' W 070°21'115.3
2018-Sep-10 00:00N 42°39' W 070°22'815.5
2018-Sep-09 23:30N 42°35' W 070°30'715.8
2018-Sep-09 23:03N 42°30' W 070°38'115.8
2018-Sep-09 23:01N 42°30' W 070°39'815.6
2018-Sep-09 22:30N 42°26' W 070°48'612.5
2018-Sep-09 22:03N 42°23' W 070°54'114.5
2018-Sep-09 22:01N 42°22' W 070°55'5 8.5
2018-Sep-09 21:26N 42°21' W 071°01'0 0.0
2018-Sep-09 10:33N 42°21' W 071°01'0 0.0
2018-Sep-09 10:24N 42°21' W 071°01'6 9.5
2018-Sep-09 09:46N 42°23' W 070°54'3 9.2
2018-Sep-09 09:29N 42°24' W 070°50'614.5
2018-Sep-09 09:03N 42°28' W 070°43'115.1
2018-Sep-09 09:00N 42°28' W 070°43'714.8
2018-Sep-09 08:30N 42°32' W 070°34'714.5
2018-Sep-09 08:03N 42°36' W 070°27'114.3
2018-Sep-09 08:00N 42°37' W 070°26'714.3
2018-Sep-09 07:30N 42°41' W 070°18'614.2
2018-Sep-09 07:03N 42°44' W 070°11'114.4
2018-Sep-09 07:00N 42°45' W 070°10'  

Dump ship's entire track history